Time;durP1;ratioP1;P1;durP2;ratioP2;P2;SDS_P1;SDS_P2;PMS_P1;PMS_P2;Temp;Humidity;BMP_temperature;BMP_pressure;BME280_temperature;BME280_humidity;BME280_pressure;Samples;Min_cycle;Max_cycle;Signal;HPM_P1;HPM_P2
2023/07/19 00:01:13;;;;;;;0.90;0.90;;;;;;;23.81;67.07;95239.47;4360340;32;20192;-61
2023/07/19 00:03:38;;;;;;;0.63;0.63;;;;;;;23.79;66.84;95241.00;4358747;32;20197;-61
2023/07/19 00:06:03;;;;;;;2.80;1.50;;;;;;;23.73;66.39;95248.69;4348198;32;20185;-61
2023/07/19 00:08:30;;;;;;;2.10;2.00;;;;;;;23.77;67.00;95248.72;4348104;32;20228;-61
2023/07/19 00:10:56;;;;;;;2.03;1.63;;;;;;;23.76;67.18;95255.28;4344025;32;20196;-61
2023/07/19 00:13:21;;;;;;;1.60;1.50;;;;;;;23.77;67.46;95254.91;4361853;32;20243;-61
2023/07/19 00:15:46;;;;;;;6.77;2.10;;;;;;;23.75;67.54;95240.19;4355092;32;20246;-63
2023/07/19 00:18:11;;;;;;;1.30;1.27;;;;;;;23.78;68.01;95247.56;4345255;32;20192;-61
2023/07/19 00:20:37;;;;;;;0.70;0.70;;;;;;;23.77;67.58;95252.22;4343023;32;20193;-61
2023/07/19 00:23:02;;;;;;;1.00;1.00;;;;;;;23.78;67.39;95245.63;4360825;32;20227;-61
2023/07/19 00:25:27;;;;;;;0.70;0.70;;;;;;;23.77;67.51;95246.78;4361616;32;20196;-61
2023/07/19 00:27:53;;;;;;;1.17;1.17;;;;;;;23.74;67.38;95250.25;4361364;32;20236;-61
2023/07/19 00:30:18;;;;;;;1.30;1.20;;;;;;;23.73;67.81;95246.00;4361474;32;20225;-61
2023/07/19 00:32:44;;;;;;;1.40;1.23;;;;;;;23.72;67.95;95240.94;4343707;32;20199;-61
2023/07/19 00:35:09;;;;;;;2.77;1.27;;;;;;;23.72;67.97;95246.38;4359612;32;20196;-61
2023/07/19 00:37:34;;;;;;;0.83;0.83;;;;;;;23.72;67.95;95241.72;4353747;32;20328;-61
2023/07/19 00:40:00;;;;;;;0.97;0.97;;;;;;;23.76;68.06;95247.16;4346882;32;20216;-61
2023/07/19 00:42:25;;;;;;;1.53;1.53;;;;;;;23.77;67.99;95248.72;4337747;32;20200;-61
2023/07/19 00:44:51;;;;;;;1.57;1.13;;;;;;;23.67;68.35;95244.03;4347567;32;20254;-61
2023/07/19 00:47:16;;;;;;;1.13;0.97;;;;;;;23.68;68.06;95246.38;4361077;32;20207;-61
2023/07/19 00:49:44;;;;;;;1.00;1.00;;;;;;;23.67;68.19;95244.81;4347267;32;20200;-61
2023/07/19 00:52:09;;;;;;;0.63;0.63;;;;;;;23.65;67.98;95247.13;4346565;32;20194;-61
2023/07/19 00:54:36;;;;;;;1.77;1.67;;;;;;;23.66;68.26;95259.50;4344663;32;20335;-61
2023/07/19 00:57:03;;;;;;;0.93;0.93;;;;;;;23.60;68.55;95256.38;4344305;32;20212;-61
2023/07/19 00:59:29;;;;;;;0.70;0.70;;;;;;;23.62;68.72;95258.72;4360014;32;20223;-61
2023/07/19 01:01:55;;;;;;;1.07;1.07;;;;;;;23.62;68.59;95248.66;4345951;32;20205;-61
2023/07/19 01:04:20;;;;;;;1.40;1.20;;;;;;;23.59;68.76;95233.16;4343378;32;20192;-61
2023/07/19 01:06:46;;;;;;;1.70;1.10;;;;;;;23.62;68.85;95231.63;4346629;32;20193;-61
2023/07/19 01:09:13;;;;;;;1.03;1.03;;;;;;;23.62;69.02;95247.88;4359564;32;20300;-61
2023/07/19 01:11:39;;;;;;;0.63;0.60;;;;;;;23.61;68.85;95257.16;4351407;32;20209;-61
2023/07/19 01:14:04;;;;;;;2.57;1.93;;;;;;;23.58;69.12;95257.91;4346860;32;20201;-61
2023/07/19 01:16:29;;;;;;;2.53;2.23;;;;;;;23.55;69.26;95264.06;4358428;32;20200;-61
2023/07/19 01:18:55;;;;;;;0.93;0.93;;;;;;;23.54;69.67;95274.13;4346855;32;20197;-61
2023/07/19 01:21:21;;;;;;;1.80;1.13;;;;;;;23.54;70.07;95267.94;4344210;32;20193;-61
2023/07/19 01:23:46;;;;;;;1.77;1.77;;;;;;;23.53;70.03;95250.13;4358869;32;20278;-61
2023/07/19 01:26:11;;;;;;;4.53;1.50;;;;;;;23.51;70.16;95268.66;4358526;32;20192;-61
2023/07/19 01:28:37;;;;;;;1.20;1.20;;;;;;;23.50;70.48;95275.22;4342112;32;20237;-61
2023/07/19 01:31:06;;;;;;;0.83;0.83;;;;;;;23.51;70.30;95252.41;4334629;32;20221;-61
2023/07/19 01:33:32;;;;;;;1.23;1.23;;;;;;;23.48;70.37;95242.34;4353423;32;20216;-61
2023/07/19 01:35:57;;;;;;;1.13;1.13;;;;;;;23.49;70.64;95238.47;4354299;32;20197;-61
2023/07/19 01:38:22;;;;;;;0.73;0.73;;;;;;;23.49;70.30;95239.25;4342478;32;20228;-61
2023/07/19 01:40:48;;;;;;;0.47;0.47;;;;;;;23.47;70.42;95236.16;4359600;32;20203;-61
2023/07/19 01:43:13;;;;;;;1.80;1.03;;;;;;;23.39;70.50;95231.06;4336712;32;20189;-61
2023/07/19 01:45:39;;;;;;;4.80;1.87;;;;;;;23.40;70.52;95230.69;4354480;32;20181;-61
2023/07/19 01:48:04;;;;;;;0.90;0.90;;;;;;;23.40;70.45;95238.03;4338866;32;20190;-61
2023/07/19 01:50:29;;;;;;;1.13;1.13;;;;;;;23.36;70.58;95240.72;4330807;32;20198;-61
2023/07/19 01:52:55;;;;;;;1.10;1.07;;;;;;;23.38;70.63;95232.22;4338675;32;20192;-61
2023/07/19 01:55:20;;;;;;;0.97;0.97;;;;;;;23.37;70.66;95231.44;4343271;32;20201;-61
2023/07/19 01:57:46;;;;;;;1.10;0.80;;;;;;;23.31;70.70;95233.72;4328474;32;20246;-61
2023/07/19 02:00:11;;;;;;;2.17;1.07;;;;;;;23.26;70.82;95236.81;4351600;32;20193;-61
2023/07/19 02:02:37;;;;;;;1.23;1.20;;;;;;;23.18;71.12;95240.59;4349385;32;20200;-61
2023/07/19 02:05:02;;;;;;;1.07;1.03;;;;;;;23.17;71.21;95236.34;4343567;32;20198;-61
2023/07/19 02:07:27;;;;;;;0.83;0.83;;;;;;;23.13;71.40;95238.22;4361311;32;20216;-61
2023/07/19 02:09:53;;;;;;;0.87;0.87;;;;;;;23.12;71.49;95247.50;4345325;32;20251;-61
2023/07/19 02:12:18;;;;;;;2.03;0.90;;;;;;;23.14;71.54;95234.38;4360493;32;20192;-61
2023/07/19 02:14:43;;;;;;;6.73;1.33;;;;;;;23.15;71.33;95252.16;4361120;32;20189;-61
2023/07/19 02:17:10;;;;;;;1.57;1.47;;;;;;;23.12;71.64;95261.03;4349261;32;20180;-62
2023/07/19 02:19:35;;;;;;;1.33;1.23;;;;;;;23.12;71.78;95279.22;4362200;32;20272;-61
2023/07/19 02:22:01;;;;;;;2.03;1.83;;;;;;;23.15;71.47;95271.12;4343881;32;20205;-61
2023/07/19 02:24:26;;;;;;;1.17;0.80;;;;;;;23.13;71.58;95272.66;4346234;32;20186;-61
2023/07/19 02:26:51;;;;;;;1.40;1.30;;;;;;;23.10;71.75;95255.22;4350698;32;20197;-61
2023/07/19 02:29:17;;;;;;;0.90;0.90;;;;;;;23.12;71.87;95254.84;4353714;32;20241;-61
2023/07/19 02:31:42;;;;;;;1.90;1.37;;;;;;;23.07;71.97;95255.97;4352993;32;20185;-61
2023/07/19 02:34:08;;;;;;;0.87;0.87;;;;;;;23.06;71.80;95257.16;4351371;32;20197;-61
2023/07/19 02:36:34;;;;;;;0.70;0.70;;;;;;;23.05;71.88;95257.50;4348556;32;20260;-61
2023/07/19 02:39:03;;;;;;;0.83;0.80;;;;;;;23.07;71.88;95238.97;4360167;32;20205;-61
2023/07/19 02:41:29;;;;;;;1.27;1.23;;;;;;;23.05;72.10;95239.34;4347047;32;20193;-61
2023/07/19 02:43:55;;;;;;;0.73;0.73;;;;;;;22.97;72.61;95240.44;4347739;32;20197;-61
2023/07/19 02:46:20;;;;;;;1.77;1.67;;;;;;;22.95;72.60;95213.75;4342283;32;20231;-61
2023/07/19 02:48:45;;;;;;;1.27;1.27;;;;;;;22.96;72.76;95228.06;4342065;32;20255;-61
2023/07/19 02:51:11;;;;;;;0.50;0.50;;;;;;;22.99;72.70;95240.06;4354899;32;20184;-61
2023/07/19 02:53:37;;;;;;;1.90;1.80;;;;;;;22.92;72.90;95246.19;4359897;32;20211;-61
2023/07/19 02:56:03;;;;;;;0.97;0.97;;;;;;;22.85;73.29;95233.38;4360017;32;20208;-61
2023/07/19 02:58:28;;;;;;;1.10;1.00;;;;;;;22.87;73.00;95236.47;4336874;32;20197;-61
2023/07/19 03:00:54;;;;;;;0.90;0.80;;;;;;;22.87;73.11;95243.81;4347016;32;20228;-61
2023/07/19 03:03:20;;;;;;;1.03;1.03;;;;;;;22.88;73.17;95226.44;4343841;32;20229;-61
2023/07/19 03:05:45;;;;;;;0.90;0.90;;;;;;;22.92;73.04;95230.72;4349550;32;20188;-61
2023/07/19 03:08:11;;;;;;;3.33;1.67;;;;;;;22.90;73.07;95233.03;4361649;32;20192;-61
2023/07/19 03:10:37;;;;;;;3.90;1.50;;;;;;;22.84;73.61;95233.75;4341690;32;20188;-61
2023/07/19 03:13:03;;;;;;;4.30;1.63;;;;;;;22.90;73.33;95229.53;4361354;32;20197;-61
2023/07/19 03:15:32;;;;;;;1.00;1.00;;;;;;;22.89;73.31;95241.50;4360466;32;20227;-61
2023/07/19 03:18:03;;;;;;;1.53;1.37;;;;;;;22.87;73.63;95241.09;4356215;32;20181;-61
2023/07/19 03:20:30;;;;;;;0.90;0.83;;;;;;;22.80;74.12;95232.94;4347259;32;20204;-61
2023/07/19 03:22:56;;;;;;;2.37;1.53;;;;;;;22.78;74.16;95235.25;4341963;32;20295;-61
2023/07/19 03:25:22;;;;;;;1.77;1.67;;;;;;;22.74;74.67;95232.47;4342031;32;20198;-61
2023/07/19 03:27:48;;;;;;;2.57;1.60;;;;;;;22.73;74.51;95239.03;4357418;32;20247;-61
2023/07/19 03:30:14;;;;;;;6.93;1.43;;;;;;;22.68;74.67;95228.53;4362693;32;20205;-61
2023/07/19 03:32:39;;;;;;;0.80;0.80;;;;;;;22.73;74.51;95224.72;4360165;32;20203;-61
2023/07/19 03:35:05;;;;;;;1.93;1.67;;;;;;;22.64;75.19;95222.34;4346397;32;22418;-61
2023/07/19 03:37:30;;;;;;;1.53;1.03;;;;;;;22.52;75.66;95231.50;4355787;32;20185;-61
2023/07/19 03:39:55;;;;;;;1.00;0.90;;;;;;;22.52;75.76;95236.91;4366636;32;20290;-61
2023/07/19 03:42:21;;;;;;;1.47;1.23;;;;;;;22.55;75.50;95228.06;4355639;32;20208;-61
2023/07/19 03:44:46;;;;;;;0.97;0.97;;;;;;;22.58;75.43;95240.84;4356032;32;20204;-61
2023/07/19 03:47:11;;;;;;;4.17;1.37;;;;;;;22.44;76.07;95235.31;4345598;32;20193;-61
2023/07/19 03:49:37;;;;;;;1.70;1.60;;;;;;;22.60;75.32;95227.72;4345725;32;20211;-61
2023/07/19 03:52:02;;;;;;;1.23;0.93;;;;;;;22.70;74.82;95225.47;4358721;32;20215;-61
2023/07/19 03:54:28;;;;;;;6.03;1.30;;;;;;;22.67;75.12;95226.22;4360472;32;20212;-61
2023/07/19 03:56:53;;;;;;;1.17;1.17;;;;;;;22.63;75.15;95218.88;4362181;32;20181;-61
2023/07/19 03:59:18;;;;;;;3.00;1.27;;;;;;;22.60;75.24;95218.84;4341191;32;20215;-61
2023/07/19 04:01:44;;;;;;;1.00;1.00;;;;;;;22.50;75.75;95220.28;4364148;32;20196;-61
2023/07/19 04:04:09;;;;;;;1.90;1.60;;;;;;;22.54;75.54;95212.19;4350535;32;20239;-61
2023/07/19 04:06:34;;;;;;;0.90;0.90;;;;;;;22.56;75.35;95213.38;4355046;32;21325;-61
2023/07/19 04:09:00;;;;;;;2.73;1.40;;;;;;;22.52;75.78;95209.88;4359189;32;20193;-61
2023/07/19 04:11:25;;;;;;;1.57;1.57;;;;;;;22.49;76.21;95202.50;4346151;32;20221;-61
2023/07/19 04:13:50;;;;;;;3.27;2.07;;;;;;;22.58;75.58;95192.16;4353791;32;20258;-62
2023/07/19 04:16:16;;;;;;;1.80;1.70;;;;;;;22.63;75.22;95197.22;4355494;32;20181;-60
2023/07/19 04:18:41;;;;;;;1.03;1.00;;;;;;;22.54;75.87;95185.94;4341847;32;20192;-61
2023/07/19 04:21:07;;;;;;;1.10;1.07;;;;;;;22.59;75.64;95182.13;4349524;32;20239;-61
2023/07/19 04:23:32;;;;;;;0.87;0.87;;;;;;;22.58;75.80;95202.97;4341015;32;20193;-61
2023/07/19 04:25:57;;;;;;;1.43;1.33;;;;;;;22.57;75.69;95200.66;4356722;32;20223;-61
2023/07/19 04:28:23;;;;;;;1.33;1.33;;;;;;;22.63;75.24;95199.94;4347574;32;20249;-61
2023/07/19 04:30:48;;;;;;;2.27;1.33;;;;;;;22.58;75.74;95197.56;4346054;32;20215;-61
2023/07/19 04:33:14;;;;;;;6.63;1.60;;;;;;;22.62;75.57;95190.28;4346015;32;20182;-61
2023/07/19 04:35:40;;;;;;;1.50;1.40;;;;;;;22.67;75.56;95196.47;4353072;32;20193;-61
2023/07/19 04:38:05;;;;;;;1.03;1.03;;;;;;;22.68;75.38;95198.78;4350743;32;20311;-61
2023/07/19 04:40:31;;;;;;;1.37;1.27;;;;;;;22.70;75.27;95193.78;4360635;32;20204;-61
2023/07/19 04:42:58;;;;;;;2.03;1.53;;;;;;;22.71;75.08;95195.34;4341593;32;20200;-61
2023/07/19 04:45:24;;;;;;;1.53;1.43;;;;;;;22.73;75.16;95203.09;4347267;32;20213;-61
2023/07/19 04:47:49;;;;;;;0.83;0.83;;;;;;;22.68;75.61;95206.13;4351948;32;20185;-61
2023/07/19 04:50:15;;;;;;;0.70;0.70;;;;;;;22.67;75.79;95212.69;4353619;32;20201;-61
2023/07/19 04:52:40;;;;;;;2.23;2.03;;;;;;;22.69;75.55;95223.91;4363907;32;20200;-61
2023/07/19 04:55:05;;;;;;;1.00;1.00;;;;;;;22.69;75.67;95221.22;4347034;32;20307;-61
2023/07/19 04:57:31;;;;;;;1.90;1.80;;;;;;;22.67;76.32;95231.63;4355581;32;20205;-61
2023/07/19 04:59:57;;;;;;;0.97;0.97;;;;;;;22.67;76.28;95231.63;4337034;32;20248;-61
2023/07/19 05:02:22;;;;;;;1.33;1.20;;;;;;;22.65;76.51;95232.03;4352610;32;20260;-61
2023/07/19 05:04:48;;;;;;;2.17;1.77;;;;;;;22.70;76.26;95233.59;4339060;32;20232;-61
2023/07/19 05:07:14;;;;;;;2.67;1.97;;;;;;;22.67;76.65;95227.00;4353165;32;20189;-61
2023/07/19 05:09:41;;;;;;;2.23;1.53;;;;;;;22.68;76.23;95217.72;4349474;32;20190;-61
2023/07/19 05:12:07;;;;;;;1.13;1.13;;;;;;;22.73;76.06;95219.31;4359621;32;20193;-61
2023/07/19 05:14:33;;;;;;;1.60;1.50;;;;;;;22.73;76.57;95219.31;4353350;32;20196;-61
2023/07/19 05:16:58;;;;;;;2.17;1.87;;;;;;;22.73;76.84;95213.91;4342990;32;20216;-61
2023/07/19 05:19:23;;;;;;;2.03;1.93;;;;;;;22.59;77.82;95225.38;4338100;32;20248;-61
2023/07/19 05:21:49;;;;;;;2.70;2.50;;;;;;;22.41;78.65;95236.03;4341651;32;20209;-61
2023/07/19 05:24:14;;;;;;;2.23;2.13;;;;;;;22.36;78.63;95232.88;4362655;32;20228;-61
2023/07/19 05:26:39;;;;;;;8.17;1.97;;;;;;;22.34;78.77;95240.59;4345610;32;20252;-61
2023/07/19 05:29:09;;;;;;;1.93;1.83;;;;;;;22.21;79.84;95253.59;4360992;32;20307;-61
2023/07/19 05:31:35;;;;;;;2.33;1.97;;;;;;;22.36;78.57;95254.50;4348757;32;20243;-61
2023/07/19 05:34:00;;;;;;;2.10;1.93;;;;;;;22.43;78.10;95244.56;4349739;32;20201;-61
2023/07/19 05:36:26;;;;;;;3.00;2.10;;;;;;;22.44;78.00;95243.41;4362899;32;20218;-64
2023/07/19 05:38:52;;;;;;;3.37;3.17;;;;;;;22.54;77.99;95245.44;4347822;32;20205;-63
2023/07/19 05:41:20;;;;;;;1.67;1.57;;;;;;;22.66;77.02;95252.47;4351153;32;20205;-63
2023/07/19 05:43:45;;;;;;;1.47;1.43;;;;;;;22.72;76.71;95250.22;4361807;32;20189;-61
2023/07/19 05:46:11;;;;;;;4.67;2.13;;;;;;;22.77;76.61;95255.31;4349237;32;20195;-63
2023/07/19 05:48:37;;;;;;;1.40;1.40;;;;;;;22.80;76.38;95243.78;4362247;32;20201;-64
2023/07/19 05:51:05;;;;;;;6.63;2.03;;;;;;;22.75;77.94;95238.66;4363173;32;20198;-64
2023/07/19 05:53:30;;;;;;;3.27;2.00;;;;;;;22.58;78.14;95223.84;4354158;32;20185;-63
2023/07/19 05:55:59;;;;;;;1.73;1.63;;;;;;;22.58;78.21;95223.84;4332534;32;20220;-63
2023/07/19 05:58:27;;;;;;;0.70;0.70;;;;;;;22.57;78.69;95228.47;4334378;32;20296;-64
2023/07/19 06:00:52;;;;;;;1.93;1.67;;;;;;;22.63;78.57;95232.38;4343808;32;20189;-64
2023/07/19 06:03:17;;;;;;;1.53;1.50;;;;;;;22.89;76.69;95238.81;4325282;32;20256;-64
2023/07/19 06:05:43;;;;;;;2.53;2.07;;;;;;;22.91;77.13;95247.34;4348299;32;20259;-63
2023/07/19 06:08:12;;;;;;;1.80;1.30;;;;;;;22.92;76.23;95257.78;4358723;32;20261;-62
2023/07/19 06:10:38;;;;;;;1.50;1.40;;;;;;;23.06;75.57;95261.78;4344257;32;20193;-63
2023/07/19 06:13:04;;;;;;;16.23;4.47;;;;;;;23.07;76.01;95255.97;4343426;32;20210;-63
2023/07/19 06:15:31;;;;;;;2.67;1.80;;;;;;;23.01;77.61;95271.00;4341967;32;20197;-63
2023/07/19 06:17:57;;;;;;;7.57;2.13;;;;;;;23.14;76.16;95264.16;4340998;32;20206;-63
2023/07/19 06:20:22;;;;;;;2.17;2.07;;;;;;;23.12;76.28;95268.37;4356215;32;20241;-63
2023/07/19 06:22:47;;;;;;;2.00;1.70;;;;;;;23.17;76.82;95268.81;4339393;32;20203;-63
2023/07/19 06:25:13;;;;;;;3.50;2.03;;;;;;;23.22;76.40;95265.78;4353417;32;20200;-61
2023/07/19 06:27:39;;;;;;;7.47;2.00;;;;;;;23.26;75.67;95261.16;4339763;32;20231;-61
2023/07/19 06:30:05;;;;;;;1.20;1.20;;;;;;;23.27;76.85;95257.31;4347090;32;20239;-61
2023/07/19 06:32:31;;;;;;;2.20;2.10;;;;;;;23.16;77.54;95269.97;4337835;32;20193;-61
2023/07/19 06:34:56;;;;;;;2.50;2.30;;;;;;;23.09;78.09;95274.53;4358747;32;20219;-61
2023/07/19 06:37:22;;;;;;;2.23;1.43;;;;;;;23.30;75.88;95270.06;4362113;32;20197;-61
2023/07/19 06:39:48;;;;;;;1.97;1.87;;;;;;;23.43;76.08;95267.06;4342852;32;20251;-61
2023/07/19 06:42:16;;;;;;;1.90;1.80;;;;;;;23.38;77.07;95264.72;4351405;32;20200;-61
2023/07/19 06:44:42;;;;;;;1.60;1.23;;;;;;;23.59;76.27;95262.16;4361702;32;20244;-61
2023/07/19 06:47:07;;;;;;;1.43;1.43;;;;;;;23.58;76.99;95263.31;4359192;32;20192;-61
2023/07/19 06:49:32;;;;;;;1.47;1.40;;;;;;;23.53;76.85;95266.38;4344974;32;20243;-60
2023/07/19 06:51:58;;;;;;;4.47;2.03;;;;;;;23.51;77.09;95274.06;4354858;32;20189;-61
2023/07/19 06:54:24;;;;;;;2.07;1.50;;;;;;;23.69;75.61;95275.03;4347394;32;20208;-61
2023/07/19 06:56:49;;;;;;;1.67;1.57;;;;;;;23.69;75.50;95275.03;4353391;32;20228;-60
2023/07/19 06:59:14;;;;;;;1.30;1.30;;;;;;;23.75;75.15;95273.47;4360453;32;20267;-61
2023/07/19 07:01:40;;;;;;;1.37;1.37;;;;;;;23.67;75.44;95273.84;4335743;32;20193;-61
2023/07/19 07:04:08;;;;;;;1.80;1.70;;;;;;;23.72;74.88;95276.94;4358699;32;20263;-60
2023/07/19 07:06:34;;;;;;;5.30;1.60;;;;;;;23.72;74.87;95276.16;4337352;32;20197;-60
2023/07/19 07:08:59;;;;;;;2.07;1.87;;;;;;;23.76;75.24;95290.50;4352643;32;20237;-62
2023/07/19 07:11:24;;;;;;;1.47;1.43;;;;;;;23.76;75.73;95295.94;4335436;32;20236;-60
2023/07/19 07:13:50;;;;;;;1.03;1.03;;;;;;;23.72;76.32;95304.03;4344442;32;20254;-61
2023/07/19 07:16:15;;;;;;;1.53;1.40;;;;;;;23.72;75.81;95304.03;4339368;32;20211;-61
2023/07/19 07:18:40;;;;;;;2.50;2.30;;;;;;;23.81;74.83;95298.28;4357949;32;20198;-61
2023/07/19 07:21:06;;;;;;;1.30;1.17;;;;;;;23.94;74.07;95300.28;4350520;32;20296;-62
2023/07/19 07:23:31;;;;;;;3.17;1.63;;;;;;;23.96;73.99;95308.81;4360965;32;20188;-61
2023/07/19 07:25:56;;;;;;;1.53;1.43;;;;;;;24.02;73.83;95308.47;4362276;32;20272;-62
2023/07/19 07:28:22;;;;;;;2.13;2.03;;;;;;;24.04;73.60;95311.59;4359045;32;20197;-60
2023/07/19 07:30:47;;;;;;;1.33;1.33;;;;;;;23.99;73.43;95313.50;4347069;32;20204;-61
2023/07/19 07:33:16;;;;;;;1.20;1.20;;;;;;;24.03;73.23;95310.03;4363020;32;20257;-61
2023/07/19 07:35:41;;;;;;;1.90;1.80;;;;;;;24.01;73.52;95312.34;4360237;32;20226;-61
2023/07/19 07:38:06;;;;;;;0.87;0.87;;;;;;;24.05;73.30;95318.56;4355616;32;20221;-61
2023/07/19 07:40:32;;;;;;;5.13;2.47;;;;;;;24.07;73.16;95316.25;4343406;32;20208;-61
2023/07/19 07:42:57;;;;;;;2.00;1.67;;;;;;;24.13;72.89;95303.88;4348226;32;20197;-60
2023/07/19 07:45:22;;;;;;;1.60;1.37;;;;;;;24.01;72.92;95306.91;4361633;32;20204;-61
2023/07/19 07:47:47;;;;;;;5.20;1.93;;;;;;;23.98;72.56;95303.03;4351759;32;20263;-61
2023/07/19 07:50:13;;;;;;;1.70;1.60;;;;;;;24.06;71.77;95314.69;4349866;32;20200;-62
2023/07/19 07:52:39;;;;;;;1.53;1.53;;;;;;;24.02;71.82;95294.94;4350081;32;20189;-62
2023/07/19 07:55:05;;;;;;;2.80;2.27;;;;;;;23.97;71.55;95293.34;4344223;32;20259;-62
2023/07/19 07:57:33;;;;;;;2.17;1.30;;;;;;;24.00;71.27;95300.72;4342915;32;20197;-60
2023/07/19 08:00:02;;;;;;;0.90;0.90;;;;;;;24.09;70.87;95294.97;4347286;32;20194;-61
2023/07/19 08:02:28;;;;;;;1.10;1.10;;;;;;;24.19;70.01;95299.66;4346171;32;20208;-61
2023/07/19 08:04:56;;;;;;;1.80;1.70;;;;;;;24.22;70.01;95296.19;4336613;32;20189;-61
2023/07/19 08:07:21;;;;;;;1.53;1.33;;;;;;;24.25;68.91;95292.72;4345721;32;20249;-61
2023/07/19 08:09:46;;;;;;;1.23;1.03;;;;;;;24.31;68.62;95293.94;4337844;32;20200;-61
2023/07/19 08:12:13;;;;;;;1.53;1.43;;;;;;;24.29;68.39;95293.53;4362256;32;20208;-60
2023/07/19 08:14:40;;;;;;;1.43;1.33;;;;;;;24.29;68.02;95297.03;4355238;32;20224;-61
2023/07/19 08:17:05;;;;;;;1.33;1.23;;;;;;;24.33;67.09;95286.16;4342439;32;20229;-61
2023/07/19 08:19:30;;;;;;;1.17;1.17;;;;;;;24.44;65.63;95287.00;4341797;32;20247;-61
2023/07/19 08:22:03;;;;;;;1.73;1.57;;;;;;;24.46;65.88;95281.97;4340004;32;20200;-61
2023/07/19 08:24:29;;;;;;;0.67;0.67;;;;;;;24.48;65.74;95265.31;4358024;32;20242;-61
2023/07/19 08:26:54;;;;;;;0.97;0.97;;;;;;;24.46;65.73;95259.47;4344835;32;20235;-62
2023/07/19 08:29:19;;;;;;;1.10;0.93;;;;;;;24.47;64.82;95259.09;4356034;32;20194;-62
2023/07/19 08:31:44;;;;;;;1.43;1.33;;;;;;;24.44;64.27;95248.25;4345399;32;20196;-61
2023/07/19 08:34:10;;;;;;;0.67;0.67;;;;;;;24.55;63.23;95247.09;4337157;32;20235;-61
2023/07/19 08:36:35;;;;;;;1.07;1.07;;;;;;;24.59;62.67;95249.81;4353932;32;20302;-61
2023/07/19 08:39:01;;;;;;;3.00;1.47;;;;;;;24.58;62.43;95248.25;4359049;32;20184;-62
2023/07/19 08:41:31;;;;;;;1.27;0.93;;;;;;;24.60;61.64;95254.84;4346331;32;20201;-61
2023/07/19 08:43:57;;;;;;;0.97;0.87;;;;;;;24.59;62.00;95249.81;4333109;32;20206;-61
2023/07/19 08:46:23;;;;;;;2.93;1.77;;;;;;;24.51;61.08;95253.69;4344803;32;20197;-61
2023/07/19 08:48:48;;;;;;;3.07;1.60;;;;;;;24.53;60.54;95249.41;4344660;32;20211;-61
2023/07/19 08:51:18;;;;;;;0.93;0.93;;;;;;;24.63;60.16;95245.94;4343281;32;20195;-61
2023/07/19 08:53:44;;;;;;;11.83;9.73;;;;;;;24.62;59.77;95254.47;4351642;32;20212;-61
2023/07/19 08:56:11;;;;;;;2.47;2.37;;;;;;;24.64;59.42;95252.94;4351784;32;20200;-62
2023/07/19 08:58:39;;;;;;;2.10;1.40;;;;;;;24.75;58.28;95254.88;4350617;32;20328;-62
2023/07/19 09:01:05;;;;;;;0.90;0.90;;;;;;;24.73;58.34;95246.38;4344926;32;20185;-61
2023/07/19 09:03:31;;;;;;;1.10;1.10;;;;;;;24.77;57.87;95247.13;4336389;32;20200;-62
2023/07/19 09:05:56;;;;;;;2.20;1.13;;;;;;;24.76;57.74;95245.56;4335307;32;20229;-61
2023/07/19 09:08:34;;;;;;;1.40;1.30;;;;;;;24.82;57.13;95244.03;4343310;32;20189;-61
2023/07/19 09:10:59;;;;;;;1.80;1.70;;;;;;;24.78;56.98;95254.09;4339792;32;20201;-62
2023/07/19 09:13:24;;;;;;;1.10;1.10;;;;;;;24.87;56.49;95258.00;4346774;32;20327;-61
2023/07/19 09:15:50;;;;;;;0.70;0.70;;;;;;;24.85;56.47;95265.75;4333934;32;20209;-61
2023/07/19 09:18:15;;;;;;;2.20;2.03;;;;;;;24.91;55.98;95261.50;4349210;32;20252;-62
2023/07/19 09:20:40;;;;;;;3.40;1.27;;;;;;;24.81;55.97;95278.53;4361084;32;20188;-62
2023/07/19 09:23:06;;;;;;;1.87;1.77;;;;;;;24.81;56.01;95278.53;4358260;32;20284;-61
2023/07/19 09:25:33;;;;;;;1.47;1.30;;;;;;;24.81;55.00;95278.53;4359908;32;20193;-61
2023/07/19 09:28:06;;;;;;;0.60;0.60;;;;;;;24.85;54.58;95282.03;4337630;32;20197;-61
2023/07/19 09:30:32;;;;;;;1.87;1.77;;;;;;;24.87;54.68;95271.56;4358858;32;20211;-61
2023/07/19 09:32:59;;;;;;;1.33;1.23;;;;;;;24.94;54.25;95281.69;4359414;32;20245;-61
2023/07/19 09:35:27;;;;;;;2.03;1.07;;;;;;;24.95;54.10;95277.81;4358565;32;20212;-62
2023/07/19 09:37:53;;;;;;;0.93;0.93;;;;;;;24.95;54.31;95277.81;4346789;32;20235;-62
2023/07/19 09:40:19;;;;;;;0.90;0.90;;;;;;;24.93;53.90;95280.12;4335818;32;20196;-61
2023/07/19 09:42:45;;;;;;;3.20;1.53;;;;;;;24.98;54.61;95296.03;4357720;32;20203;-61
2023/07/19 09:45:11;;;;;;;1.40;1.33;;;;;;;24.93;54.63;95280.91;4351180;32;20192;-61
2023/07/19 09:47:37;;;;;;;0.60;0.60;;;;;;;24.95;54.76;95280.50;4341357;32;20280;-62
2023/07/19 09:50:06;;;;;;;1.27;1.27;;;;;;;24.91;55.25;95280.50;4355146;32;20296;-62
2023/07/19 09:52:36;;;;;;;0.90;0.90;;;;;;;24.80;55.86;95287.84;4358148;32;20181;-61
2023/07/19 09:55:03;;;;;;;1.07;1.07;;;;;;;24.89;55.46;95287.47;4360136;32;20181;-62
2023/07/19 09:57:31;;;;;;;1.00;1.00;;;;;;;24.96;55.23;95269.28;4358079;32;20246;-61
2023/07/19 09:59:57;;;;;;;0.87;0.87;;;;;;;24.93;55.10;95277.41;4356934;32;20188;-61
2023/07/19 10:02:23;;;;;;;1.57;1.47;;;;;;;24.99;54.96;95276.66;4358674;32;20303;-61
2023/07/19 10:04:50;;;;;;;0.77;0.77;;;;;;;24.94;55.33;95266.16;4350273;32;20188;-62
2023/07/19 10:07:20;;;;;;;1.17;1.17;;;;;;;24.93;55.73;95263.84;4363732;32;20243;-61
2023/07/19 10:09:52;;;;;;;1.27;1.23;;;;;;;25.04;55.33;95267.34;4337424;32;20192;-61
2023/07/19 10:12:17;;;;;;;1.00;1.00;;;;;;;25.08;54.97;95278.22;4359149;32;20193;-61
2023/07/19 10:15:06;;;;;;;0.93;0.93;;;;;;;24.99;54.76;95273.16;4360850;32;20205;-61
2023/07/19 10:17:40;;;;;;;1.07;1.07;;;;;;;24.91;55.10;95266.16;4349327;32;20205;-61
2023/07/19 10:20:14;;;;;;;1.10;1.10;;;;;;;25.04;54.36;95263.84;4348908;32;20242;-61
2023/07/19 10:26:09;;;;;;;1.33;0.83;;;;;;;25.02;53.97;95258.81;4351231;32;20201;-61
2023/07/19 10:28:34;;;;;;;0.77;0.77;;;;;;;24.98;53.82;95253.37;4344109;32;20208;-61
2023/07/19 10:31:01;;;;;;;0.93;0.93;;;;;;;25.07;53.52;95261.16;4351871;32;20197;-60
2023/07/19 10:33:28;;;;;;;1.17;1.07;;;;;;;25.07;53.44;95258.44;4332539;32;20273;-61
2023/07/19 10:36:03;;;;;;;1.07;1.07;;;;;;;25.12;53.46;95247.19;4345633;32;20220;-61
2023/07/19 10:38:28;;;;;;;0.63;0.63;;;;;;;25.05;53.38;95249.12;4340475;32;20270;-61
2023/07/19 10:40:58;;;;;;;0.80;0.80;;;;;;;25.19;52.23;95240.97;4332212;32;20182;-61
2023/07/19 10:43:25;;;;;;;0.83;0.83;;;;;;;25.10;52.38;95241.38;4347799;32;20222;-61
2023/07/19 10:45:52;;;;;;;3.13;1.27;;;;;;;25.09;52.27;95242.53;4351016;32;20272;-61
2023/07/19 10:48:17;;;;;;;1.00;1.00;;;;;;;25.19;51.50;95239.03;4334945;32;20189;-61
2023/07/19 10:50:44;;;;;;;0.90;0.90;;;;;;;25.22;51.27;95235.53;4341714;32;20207;-61
2023/07/19 10:53:10;;;;;;;0.80;0.80;;;;;;;25.12;51.70;95243.69;4353137;32;20229;-61
2023/07/19 10:55:35;;;;;;;0.83;0.83;;;;;;;25.30;49.07;95234.38;4345376;32;20255;-61
2023/07/19 10:58:00;;;;;;;1.37;1.07;;;;;;;25.20;51.13;95232.44;4350999;32;20302;-60
2023/07/19 11:00:26;;;;;;;1.53;1.43;;;;;;;25.23;50.50;95237.09;4345485;32;20228;-61
2023/07/19 11:02:53;;;;;;;0.73;0.73;;;;;;;25.18;50.64;95220.41;4333720;32;20200;-61
2023/07/19 11:05:19;;;;;;;2.57;1.73;;;;;;;25.21;51.12;95225.06;4350593;32;20229;-61
2023/07/19 11:07:48;;;;;;;1.47;1.47;;;;;;;25.22;50.55;95221.19;4352836;32;20189;-61
2023/07/19 11:10:13;;;;;;;0.87;0.87;;;;;;;25.28;50.64;95204.09;4348175;32;20193;-61
2023/07/19 11:12:39;;;;;;;0.50;0.50;;;;;;;25.19;50.28;95203.72;4334216;32;20233;-61
2023/07/19 11:15:07;;;;;;;1.10;1.10;;;;;;;25.27;49.48;95213.41;4336439;32;20224;-60
2023/07/19 11:17:35;;;;;;;1.97;1.87;;;;;;;25.30;49.63;95211.88;4337440;32;20208;-61
2023/07/19 11:20:00;;;;;;;0.87;0.87;;;;;;;25.30;49.68;95196.34;4344084;32;20264;-61
2023/07/19 11:22:27;;;;;;;0.93;0.93;;;;;;;25.26;49.86;95201.00;4337656;32;20237;-61
2023/07/19 11:24:54;;;;;;;1.13;1.13;;;;;;;25.23;49.89;95209.91;4335679;32;20203;-61
2023/07/19 11:27:32;;;;;;;1.73;1.30;;;;;;;25.15;50.19;95213.78;4352413;32;20201;-61
2023/07/19 11:29:57;;;;;;;0.63;0.63;;;;;;;25.13;50.34;95218.88;4346524;32;20204;-61
2023/07/19 11:32:23;;;;;;;0.47;0.40;;;;;;;25.17;50.21;95197.91;4327219;32;20209;-61